31°C Temp
17°C Dewpoint
43% Humidity
Temperature
23 KM/H
14 MPH
12 KTS
220°
South West

Wind Speed
Partly Cloudy
Conditions
Pressure 1008.81 (hPa) - 29.79 (in)
Visibility 6.0 (mi) - 9.7 (km)

Current Conditions
LIMP
Location 40(km)
Metar :LIMP 131450Z 22012KT 9999 FEW030 31/17 Q1009
Sat 13th July 15:50 pm

Airport
  Metar Aviation API Data Provided by https://www.checkwx.com/ PHP scripts by weather34.com ©2024